sensor_id;sensor_type;location;lat;lon;timestamp;temperature;humidity
61412;DHT22;47278;49.732;7.690;2022-07-06T00:01:00;15.10;99.90
61412;DHT22;47278;49.732;7.690;2022-07-06T00:03:25;15.10;99.90
61412;DHT22;47278;49.732;7.690;2022-07-06T00:05:51;15.20;99.90
61412;DHT22;47278;49.732;7.690;2022-07-06T00:08:16;15.30;99.90
61412;DHT22;47278;49.732;7.690;2022-07-06T00:10:42;15.30;99.90
61412;DHT22;47278;49.732;7.690;2022-07-06T00:13:08;15.40;99.90
61412;DHT22;47278;49.732;7.690;2022-07-06T00:15:34;15.50;99.90
61412;DHT22;47278;49.732;7.690;2022-07-06T00:18:00;15.50;99.90
61412;DHT22;47278;49.732;7.690;2022-07-06T00:20:25;15.40;99.90
61412;DHT22;47278;49.732;7.690;2022-07-06T00:22:51;15.20;99.90
61412;DHT22;47278;49.732;7.690;2022-07-06T00:25:16;15.10;99.90
61412;DHT22;47278;49.732;7.690;2022-07-06T00:27:42;15.00;99.90
61412;DHT22;47278;49.732;7.690;2022-07-06T00:30:07;15.00;99.90
61412;DHT22;47278;49.732;7.690;2022-07-06T00:32:33;14.90;99.90
61412;DHT22;47278;49.732;7.690;2022-07-06T00:34:58;15.60;99.90
61412;DHT22;47278;49.732;7.690;2022-07-06T00:37:24;14.60;99.90
61412;DHT22;47278;49.732;7.690;2022-07-06T00:39:49;14.50;99.90
61412;DHT22;47278;49.732;7.690;2022-07-06T00:42:15;14.50;99.90
61412;DHT22;47278;49.732;7.690;2022-07-06T00:44:40;14.50;99.90
61412;DHT22;47278;49.732;7.690;2022-07-06T00:47:06;14.40;99.90
61412;DHT22;47278;49.732;7.690;2022-07-06T00:49:33;14.50;99.90
61412;DHT22;47278;49.732;7.690;2022-07-06T00:52:17;14.50;99.90
61412;DHT22;47278;49.732;7.690;2022-07-06T00:54:42;14.50;99.90
61412;DHT22;47278;49.732;7.690;2022-07-06T00:57:08;14.40;99.90
61412;DHT22;47278;49.732;7.690;2022-07-06T00:59:34;14.30;99.90
61412;DHT22;47278;49.732;7.690;2022-07-06T01:02:00;14.30;99.90
61412;DHT22;47278;49.732;7.690;2022-07-06T01:04:26;14.30;99.90
61412;DHT22;47278;49.732;7.690;2022-07-06T01:06:53;14.20;99.90
61412;DHT22;47278;49.732;7.690;2022-07-06T01:09:18;14.20;99.90
61412;DHT22;47278;49.732;7.690;2022-07-06T01:11:44;14.00;99.90
61412;DHT22;47278;49.732;7.690;2022-07-06T01:14:09;14.00;99.90
61412;DHT22;47278;49.732;7.690;2022-07-06T01:16:35;14.00;99.90
61412;DHT22;47278;49.732;7.690;2022-07-06T01:19:02;14.00;99.90
61412;DHT22;47278;49.732;7.690;2022-07-06T01:21:27;14.00;99.90
61412;DHT22;47278;49.732;7.690;2022-07-06T01:23:53;13.90;99.90
61412;DHT22;47278;49.732;7.690;2022-07-06T01:26:19;15.00;99.90
61412;DHT22;47278;49.732;7.690;2022-07-06T01:28:45;13.90;99.90
61412;DHT22;47278;49.732;7.690;2022-07-06T01:31:17;13.80;99.90
61412;DHT22;47278;49.732;7.690;2022-07-06T01:33:43;13.70;99.90
61412;DHT22;47278;49.732;7.690;2022-07-06T01:36:09;13.60;99.90
61412;DHT22;47278;49.732;7.690;2022-07-06T01:38:51;13.60;99.90
61412;DHT22;47278;49.732;7.690;2022-07-06T01:41:17;13.50;99.90
61412;DHT22;47278;49.732;7.690;2022-07-06T01:43:43;13.50;99.90
61412;DHT22;47278;49.732;7.690;2022-07-06T01:46:09;13.40;99.90
61412;DHT22;47278;49.732;7.690;2022-07-06T01:48:35;13.30;99.90
61412;DHT22;47278;49.732;7.690;2022-07-06T01:51:00;13.30;99.90
61412;DHT22;47278;49.732;7.690;2022-07-06T01:53:26;13.20;99.90
61412;DHT22;47278;49.732;7.690;2022-07-06T01:55:51;13.30;99.90
61412;DHT22;47278;49.732;7.690;2022-07-06T01:58:17;13.20;99.90
61412;DHT22;47278;49.732;7.690;2022-07-06T02:00:43;13.20;99.90
61412;DHT22;47278;49.732;7.690;2022-07-06T02:03:08;13.20;99.90
61412;DHT22;47278;49.732;7.690;2022-07-06T02:05:34;13.20;99.90
61412;DHT22;47278;49.732;7.690;2022-07-06T02:07:59;13.10;99.90
61412;DHT22;47278;49.732;7.690;2022-07-06T02:10:25;13.20;99.90
61412;DHT22;47278;49.732;7.690;2022-07-06T02:12:50;13.10;99.90
61412;DHT22;47278;49.732;7.690;2022-07-06T02:15:16;13.20;99.90
61412;DHT22;47278;49.732;7.690;2022-07-06T02:17:42;13.30;99.90
61412;DHT22;47278;49.732;7.690;2022-07-06T02:20:07;13.20;99.90
61412;DHT22;47278;49.732;7.690;2022-07-06T02:22:33;13.10;99.90
61412;DHT22;47278;49.732;7.690;2022-07-06T02:24:58;13.10;99.90
61412;DHT22;47278;49.732;7.690;2022-07-06T02:27:24;13.00;99.90
61412;DHT22;47278;49.732;7.690;2022-07-06T02:29:50;13.10;99.90
61412;DHT22;47278;49.732;7.690;2022-07-06T02:32:16;13.10;99.90
61412;DHT22;47278;49.732;7.690;2022-07-06T02:34:41;13.10;99.90
61412;DHT22;47278;49.732;7.690;2022-07-06T02:37:07;13.10;99.90
61412;DHT22;47278;49.732;7.690;2022-07-06T02:39:32;13.20;99.90
61412;DHT22;47278;49.732;7.690;2022-07-06T02:41:58;13.20;99.90
61412;DHT22;47278;49.732;7.690;2022-07-06T02:44:23;13.20;99.90
61412;DHT22;47278;49.732;7.690;2022-07-06T02:46:49;13.30;99.90
61412;DHT22;47278;49.732;7.690;2022-07-06T02:49:14;13.20;99.90
61412;DHT22;47278;49.732;7.690;2022-07-06T02:51:40;13.20;99.90
61412;DHT22;47278;49.732;7.690;2022-07-06T02:54:05;13.20;99.90
61412;DHT22;47278;49.732;7.690;2022-07-06T02:56:31;13.10;99.90
61412;DHT22;47278;49.732;7.690;2022-07-06T02:58:56;13.10;99.90
61412;DHT22;47278;49.732;7.690;2022-07-06T03:01:22;12.90;99.90
61412;DHT22;47278;49.732;7.690;2022-07-06T03:03:47;12.90;99.90
61412;DHT22;47278;49.732;7.690;2022-07-06T03:06:13;12.90;99.90
61412;DHT22;47278;49.732;7.690;2022-07-06T03:08:38;12.90;99.90
61412;DHT22;47278;49.732;7.690;2022-07-06T03:11:04;12.80;99.90
61412;DHT22;47278;49.732;7.690;2022-07-06T03:13:29;12.90;99.90
61412;DHT22;47278;49.732;7.690;2022-07-06T03:15:55;13.00;99.90
61412;DHT22;47278;49.732;7.690;2022-07-06T03:18:21;13.00;99.90
61412;DHT22;47278;49.732;7.690;2022-07-06T03:20:46;12.90;99.90
61412;DHT22;47278;49.732;7.690;2022-07-06T03:23:12;12.90;99.90
61412;DHT22;47278;49.732;7.690;2022-07-06T03:25:37;12.90;99.90
61412;DHT22;47278;49.732;7.690;2022-07-06T03:28:03;12.80;99.90
61412;DHT22;47278;49.732;7.690;2022-07-06T03:30:28;12.80;99.90
61412;DHT22;47278;49.732;7.690;2022-07-06T03:32:54;12.80;99.90
61412;DHT22;47278;49.732;7.690;2022-07-06T03:35:20;12.80;99.90
61412;DHT22;47278;49.732;7.690;2022-07-06T03:37:45;12.80;99.90
61412;DHT22;47278;49.732;7.690;2022-07-06T03:40:11;12.80;99.90
61412;DHT22;47278;49.732;7.690;2022-07-06T03:42:37;12.80;99.90
61412;DHT22;47278;49.732;7.690;2022-07-06T03:45:03;13.10;99.90
61412;DHT22;47278;49.732;7.690;2022-07-06T03:47:29;12.90;99.90
61412;DHT22;47278;49.732;7.690;2022-07-06T03:49:55;12.90;99.90
61412;DHT22;47278;49.732;7.690;2022-07-06T03:52:21;12.90;99.90
61412;DHT22;47278;49.732;7.690;2022-07-06T03:54:46;12.90;99.90
61412;DHT22;47278;49.732;7.690;2022-07-06T03:57:12;12.90;99.90
61412;DHT22;47278;49.732;7.690;2022-07-06T03:59:41;12.90;99.90
61412;DHT22;47278;49.732;7.690;2022-07-06T04:02:07;13.10;99.90
61412;DHT22;47278;49.732;7.690;2022-07-06T04:04:35;13.00;99.90
61412;DHT22;47278;49.732;7.690;2022-07-06T04:07:01;13.20;99.90
61412;DHT22;47278;49.732;7.690;2022-07-06T04:09:26;13.20;99.90
61412;DHT22;47278;49.732;7.690;2022-07-06T04:11:52;13.30;99.90
61412;DHT22;47278;49.732;7.690;2022-07-06T04:14:18;13.50;99.90
61412;DHT22;47278;49.732;7.690;2022-07-06T04:16:43;13.60;99.90
61412;DHT22;47278;49.732;7.690;2022-07-06T04:19:09;13.50;99.90
61412;DHT22;47278;49.732;7.690;2022-07-06T04:21:34;13.40;99.90
61412;DHT22;47278;49.732;7.690;2022-07-06T04:24:00;13.50;99.90
61412;DHT22;47278;49.732;7.690;2022-07-06T04:26:25;13.60;99.90
61412;DHT22;47278;49.732;7.690;2022-07-06T04:28:51;13.40;99.90
61412;DHT22;47278;49.732;7.690;2022-07-06T04:31:16;13.40;99.90
61412;DHT22;47278;49.732;7.690;2022-07-06T04:33:42;13.40;99.90
61412;DHT22;47278;49.732;7.690;2022-07-06T04:36:10;13.40;99.90
61412;DHT22;47278;49.732;7.690;2022-07-06T04:38:36;13.50;99.90
61412;DHT22;47278;49.732;7.690;2022-07-06T04:41:02;13.40;99.90
61412;DHT22;47278;49.732;7.690;2022-07-06T04:43:28;13.50;99.90
61412;DHT22;47278;49.732;7.690;2022-07-06T04:45:53;13.50;99.90
61412;DHT22;47278;49.732;7.690;2022-07-06T04:48:19;13.50;99.90
61412;DHT22;47278;49.732;7.690;2022-07-06T04:50:44;13.50;99.90
61412;DHT22;47278;49.732;7.690;2022-07-06T04:53:10;13.60;99.90
61412;DHT22;47278;49.732;7.690;2022-07-06T04:55:35;13.80;99.90
61412;DHT22;47278;49.732;7.690;2022-07-06T04:58:01;13.80;99.90
61412;DHT22;47278;49.732;7.690;2022-07-06T05:00:26;13.80;99.90
61412;DHT22;47278;49.732;7.690;2022-07-06T05:02:52;13.80;99.90
61412;DHT22;47278;49.732;7.690;2022-07-06T05:05:18;13.90;99.90
61412;DHT22;47278;49.732;7.690;2022-07-06T05:07:43;13.90;99.90
61412;DHT22;47278;49.732;7.690;2022-07-06T05:10:09;13.90;99.90
61412;DHT22;47278;49.732;7.690;2022-07-06T05:12:35;13.90;99.90
61412;DHT22;47278;49.732;7.690;2022-07-06T05:15:01;13.90;99.90
61412;DHT22;47278;49.732;7.690;2022-07-06T05:17:27;14.00;99.90
61412;DHT22;47278;49.732;7.690;2022-07-06T05:19:52;14.10;99.90
61412;DHT22;47278;49.732;7.690;2022-07-06T05:22:18;14.10;99.90
61412;DHT22;47278;49.732;7.690;2022-07-06T05:24:44;14.00;99.90
61412;DHT22;47278;49.732;7.690;2022-07-06T05:27:09;14.10;99.90
61412;DHT22;47278;49.732;7.690;2022-07-06T05:29:35;14.20;99.90
61412;DHT22;47278;49.732;7.690;2022-07-06T05:32:01;14.30;99.90
61412;DHT22;47278;49.732;7.690;2022-07-06T05:34:27;14.30;99.90
61412;DHT22;47278;49.732;7.690;2022-07-06T05:36:52;14.30;99.90
61412;DHT22;47278;49.732;7.690;2022-07-06T05:39:18;14.20;99.90
61412;DHT22;47278;49.732;7.690;2022-07-06T05:41:46;14.30;99.90
61412;DHT22;47278;49.732;7.690;2022-07-06T05:44:12;14.40;99.90
61412;DHT22;47278;49.732;7.690;2022-07-06T05:46:38;14.40;99.90
61412;DHT22;47278;49.732;7.690;2022-07-06T05:49:03;14.40;99.90
61412;DHT22;47278;49.732;7.690;2022-07-06T05:51:48;14.50;99.90
61412;DHT22;47278;49.732;7.690;2022-07-06T05:54:14;14.50;99.90
61412;DHT22;47278;49.732;7.690;2022-07-06T05:56:40;14.60;99.90
61412;DHT22;47278;49.732;7.690;2022-07-06T05:59:06;14.60;99.90
61412;DHT22;47278;49.732;7.690;2022-07-06T06:01:31;14.60;99.90
61412;DHT22;47278;49.732;7.690;2022-07-06T06:03:57;14.60;99.90
61412;DHT22;47278;49.732;7.690;2022-07-06T06:06:22;14.70;99.90
61412;DHT22;47278;49.732;7.690;2022-07-06T06:08:48;14.60;99.90
61412;DHT22;47278;49.732;7.690;2022-07-06T06:11:13;15.50;99.90
61412;DHT22;47278;49.732;7.690;2022-07-06T06:13:39;14.90;99.90
61412;DHT22;47278;49.732;7.690;2022-07-06T06:16:04;15.00;99.90
61412;DHT22;47278;49.732;7.690;2022-07-06T06:18:30;15.00;99.90
61412;DHT22;47278;49.732;7.690;2022-07-06T06:20:55;15.00;99.90
61412;DHT22;47278;49.732;7.690;2022-07-06T06:23:21;15.00;99.90
61412;DHT22;47278;49.732;7.690;2022-07-06T06:25:47;15.10;99.90
61412;DHT22;47278;49.732;7.690;2022-07-06T06:28:12;15.20;99.90
61412;DHT22;47278;49.732;7.690;2022-07-06T06:30:38;15.20;99.90
61412;DHT22;47278;49.732;7.690;2022-07-06T06:33:11;15.30;99.90
61412;DHT22;47278;49.732;7.690;2022-07-06T06:35:37;15.20;99.90
61412;DHT22;47278;49.732;7.690;2022-07-06T06:38:03;15.30;99.90
61412;DHT22;47278;49.732;7.690;2022-07-06T06:40:28;15.40;99.90
61412;DHT22;47278;49.732;7.690;2022-07-06T06:42:54;15.30;99.90
61412;DHT22;47278;49.732;7.690;2022-07-06T06:45:19;15.20;99.90
61412;DHT22;47278;49.732;7.690;2022-07-06T06:47:45;15.30;99.90
61412;DHT22;47278;49.732;7.690;2022-07-06T06:50:10;15.30;99.90
61412;DHT22;47278;49.732;7.690;2022-07-06T06:52:36;15.40;99.90
61412;DHT22;47278;49.732;7.690;2022-07-06T06:55:01;15.40;99.90
61412;DHT22;47278;49.732;7.690;2022-07-06T06:57:27;15.50;99.90
61412;DHT22;47278;49.732;7.690;2022-07-06T06:59:54;15.60;99.90
61412;DHT22;47278;49.732;7.690;2022-07-06T07:02:19;15.60;99.90
61412;DHT22;47278;49.732;7.690;2022-07-06T07:04:45;15.60;99.90
61412;DHT22;47278;49.732;7.690;2022-07-06T07:07:11;15.80;99.90
61412;DHT22;47278;49.732;7.690;2022-07-06T07:09:36;15.80;99.90
61412;DHT22;47278;49.732;7.690;2022-07-06T07:12:02;15.80;99.90
61412;DHT22;47278;49.732;7.690;2022-07-06T07:14:27;15.80;99.90
61412;DHT22;47278;49.732;7.690;2022-07-06T07:16:55;15.80;99.90
61412;DHT22;47278;49.732;7.690;2022-07-06T07:19:20;15.90;99.90
61412;DHT22;47278;49.732;7.690;2022-07-06T07:21:46;16.20;99.90
61412;DHT22;47278;49.732;7.690;2022-07-06T07:24:11;16.10;99.90
61412;DHT22;47278;49.732;7.690;2022-07-06T07:26:37;16.30;99.90
61412;DHT22;47278;49.732;7.690;2022-07-06T07:29:02;16.20;99.90
61412;DHT22;47278;49.732;7.690;2022-07-06T07:31:28;16.20;99.90
61412;DHT22;47278;49.732;7.690;2022-07-06T07:33:54;16.30;99.90
61412;DHT22;47278;49.732;7.690;2022-07-06T07:36:22;16.40;99.90
61412;DHT22;47278;49.732;7.690;2022-07-06T07:38:48;16.40;99.90
61412;DHT22;47278;49.732;7.690;2022-07-06T07:41:14;16.30;99.90
61412;DHT22;47278;49.732;7.690;2022-07-06T07:43:40;16.30;99.90
61412;DHT22;47278;49.732;7.690;2022-07-06T07:46:05;16.30;99.90
61412;DHT22;47278;49.732;7.690;2022-07-06T07:48:31;16.40;99.90
61412;DHT22;47278;49.732;7.690;2022-07-06T07:50:56;16.40;99.90
61412;DHT22;47278;49.732;7.690;2022-07-06T07:53:22;16.30;99.90
61412;DHT22;47278;49.732;7.690;2022-07-06T07:55:47;16.30;99.90
61412;DHT22;47278;49.732;7.690;2022-07-06T07:58:13;16.20;99.90
61412;DHT22;47278;49.732;7.690;2022-07-06T08:00:38;16.50;99.90
61412;DHT22;47278;49.732;7.690;2022-07-06T08:03:04;16.50;99.90
61412;DHT22;47278;49.732;7.690;2022-07-06T08:05:30;16.60;99.90
61412;DHT22;47278;49.732;7.690;2022-07-06T08:07:56;16.70;99.90
61412;DHT22;47278;49.732;7.690;2022-07-06T08:10:21;16.80;99.90
61412;DHT22;47278;49.732;7.690;2022-07-06T08:12:47;16.80;99.90
61412;DHT22;47278;49.732;7.690;2022-07-06T08:15:13;16.60;99.90
61412;DHT22;47278;49.732;7.690;2022-07-06T08:17:38;17.00;99.90
61412;DHT22;47278;49.732;7.690;2022-07-06T08:20:05;17.20;99.90
61412;DHT22;47278;49.732;7.690;2022-07-06T08:22:31;17.30;99.90
61412;DHT22;47278;49.732;7.690;2022-07-06T08:24:56;17.40;99.90
61412;DHT22;47278;49.732;7.690;2022-07-06T08:27:23;17.30;99.90
61412;DHT22;47278;49.732;7.690;2022-07-06T08:29:49;17.00;99.90
61412;DHT22;47278;49.732;7.690;2022-07-06T08:32:14;17.10;99.90
61412;DHT22;47278;49.732;7.690;2022-07-06T08:34:41;17.10;99.90
61412;DHT22;47278;49.732;7.690;2022-07-06T08:37:08;17.30;99.90
61412;DHT22;47278;49.732;7.690;2022-07-06T08:39:34;17.40;99.90
61412;DHT22;47278;49.732;7.690;2022-07-06T08:41:59;16.10;99.90
61412;DHT22;47278;49.732;7.690;2022-07-06T08:44:25;17.60;99.90
61412;DHT22;47278;49.732;7.690;2022-07-06T08:46:52;17.60;99.90
61412;DHT22;47278;49.732;7.690;2022-07-06T08:49:19;17.90;99.90
61412;DHT22;47278;49.732;7.690;2022-07-06T08:51:45;18.10;99.90
61412;DHT22;47278;49.732;7.690;2022-07-06T08:54:11;18.20;99.90
61412;DHT22;47278;49.732;7.690;2022-07-06T08:56:37;18.30;99.90
61412;DHT22;47278;49.732;7.690;2022-07-06T08:59:03;18.30;99.90
61412;DHT22;47278;49.732;7.690;2022-07-06T09:01:28;18.30;99.90
61412;DHT22;47278;49.732;7.690;2022-07-06T09:03:55;18.30;99.90
61412;DHT22;47278;49.732;7.690;2022-07-06T09:06:25;18.10;99.90
61412;DHT22;47278;49.732;7.690;2022-07-06T09:08:52;18.30;99.90
61412;DHT22;47278;49.732;7.690;2022-07-06T09:11:18;18.20;99.90
61412;DHT22;47278;49.732;7.690;2022-07-06T09:13:43;18.30;99.90
61412;DHT22;47278;49.732;7.690;2022-07-06T09:16:10;18.50;99.90
61412;DHT22;47278;49.732;7.690;2022-07-06T09:18:36;19.10;99.90
61412;DHT22;47278;49.732;7.690;2022-07-06T09:21:03;18.70;99.90
61412;DHT22;47278;49.732;7.690;2022-07-06T09:23:28;18.60;99.90
61412;DHT22;47278;49.732;7.690;2022-07-06T09:25:54;18.40;99.90
61412;DHT22;47278;49.732;7.690;2022-07-06T09:28:20;19.10;99.90
61412;DHT22;47278;49.732;7.690;2022-07-06T09:30:45;19.80;99.90
61412;DHT22;47278;49.732;7.690;2022-07-06T09:33:11;19.90;99.90
61412;DHT22;47278;49.732;7.690;2022-07-06T09:35:42;19.90;99.90
61412;DHT22;47278;49.732;7.690;2022-07-06T09:38:09;20.00;99.90
61412;DHT22;47278;49.732;7.690;2022-07-06T09:40:36;19.90;99.90
61412;DHT22;47278;49.732;7.690;2022-07-06T09:43:15;20.10;99.90
61412;DHT22;47278;49.732;7.690;2022-07-06T09:45:44;20.10;99.90
61412;DHT22;47278;49.732;7.690;2022-07-06T09:48:11;19.50;99.90
61412;DHT22;47278;49.732;7.690;2022-07-06T09:50:43;19.40;99.90
61412;DHT22;47278;49.732;7.690;2022-07-06T09:53:09;19.80;99.90
61412;DHT22;47278;49.732;7.690;2022-07-06T09:55:35;20.10;99.90
61412;DHT22;47278;49.732;7.690;2022-07-06T09:58:00;19.90;99.90
61412;DHT22;47278;49.732;7.690;2022-07-06T10:00:26;19.70;99.90
61412;DHT22;47278;49.732;7.690;2022-07-06T10:02:52;19.70;99.90
61412;DHT22;47278;49.732;7.690;2022-07-06T10:05:18;19.90;99.90
61412;DHT22;47278;49.732;7.690;2022-07-06T10:07:45;20.00;99.90
61412;DHT22;47278;49.732;7.690;2022-07-06T10:10:11;20.10;99.90
61412;DHT22;47278;49.732;7.690;2022-07-06T10:12:37;19.80;99.90
61412;DHT22;47278;49.732;7.690;2022-07-06T10:15:03;20.50;99.90
61412;DHT22;47278;49.732;7.690;2022-07-06T10:17:28;20.50;99.90
61412;DHT22;47278;49.732;7.690;2022-07-06T10:19:54;20.60;99.90
61412;DHT22;47278;49.732;7.690;2022-07-06T10:22:21;21.10;99.90
61412;DHT22;47278;49.732;7.690;2022-07-06T10:24:46;21.10;99.90
61412;DHT22;47278;49.732;7.690;2022-07-06T10:27:12;20.90;99.90
61412;DHT22;47278;49.732;7.690;2022-07-06T10:29:39;20.80;99.90
61412;DHT22;47278;49.732;7.690;2022-07-06T10:32:04;20.20;99.90
61412;DHT22;47278;49.732;7.690;2022-07-06T10:34:30;20.60;99.90
61412;DHT22;47278;49.732;7.690;2022-07-06T10:36:56;21.00;99.90
61412;DHT22;47278;49.732;7.690;2022-07-06T10:39:31;21.30;99.90
61412;DHT22;47278;49.732;7.690;2022-07-06T10:42:38;21.60;99.90
61412;DHT22;47278;49.732;7.690;2022-07-06T10:45:03;20.80;99.90
61412;DHT22;47278;49.732;7.690;2022-07-06T10:47:29;20.80;99.90
61412;DHT22;47278;49.732;7.690;2022-07-06T10:49:57;21.30;99.90
61412;DHT22;47278;49.732;7.690;2022-07-06T10:52:42;21.50;99.90
61412;DHT22;47278;49.732;7.690;2022-07-06T10:55:27;21.10;99.90
61412;DHT22;47278;49.732;7.690;2022-07-06T10:57:54;21.00;99.90
61412;DHT22;47278;49.732;7.690;2022-07-06T11:00:19;21.30;99.90
61412;DHT22;47278;49.732;7.690;2022-07-06T11:02:46;21.30;99.90
61412;DHT22;47278;49.732;7.690;2022-07-06T11:05:11;21.80;99.90
61412;DHT22;47278;49.732;7.690;2022-07-06T11:07:49;22.00;99.90
61412;DHT22;47278;49.732;7.690;2022-07-06T11:10:15;21.30;99.90
61412;DHT22;47278;49.732;7.690;2022-07-06T11:12:44;21.20;99.90
61412;DHT22;47278;49.732;7.690;2022-07-06T11:15:10;21.90;99.90
61412;DHT22;47278;49.732;7.690;2022-07-06T11:17:35;21.40;99.90
61412;DHT22;47278;49.732;7.690;2022-07-06T11:20:10;21.80;99.90
61412;DHT22;47278;49.732;7.690;2022-07-06T11:22:37;21.80;99.90
61412;DHT22;47278;49.732;7.690;2022-07-06T11:25:03;22.30;99.90
61412;DHT22;47278;49.732;7.690;2022-07-06T11:27:29;22.20;99.90
61412;DHT22;47278;49.732;7.690;2022-07-06T11:29:55;22.20;99.90
61412;DHT22;47278;49.732;7.690;2022-07-06T11:32:24;22.40;99.90
61412;DHT22;47278;49.732;7.690;2022-07-06T11:34:50;22.10;99.90
61412;DHT22;47278;49.732;7.690;2022-07-06T11:37:16;21.30;99.90
61412;DHT22;47278;49.732;7.690;2022-07-06T11:39:43;21.70;99.90
61412;DHT22;47278;49.732;7.690;2022-07-06T11:42:11;22.20;99.90
61412;DHT22;47278;49.732;7.690;2022-07-06T11:44:37;22.10;99.90
61412;DHT22;47278;49.732;7.690;2022-07-06T11:47:02;22.30;99.90
61412;DHT22;47278;49.732;7.690;2022-07-06T11:49:29;22.10;99.90
61412;DHT22;47278;49.732;7.690;2022-07-06T11:51:55;22.50;99.90
61412;DHT22;47278;49.732;7.690;2022-07-06T11:54:21;22.50;99.90
61412;DHT22;47278;49.732;7.690;2022-07-06T11:56:57;21.90;99.90
61412;DHT22;47278;49.732;7.690;2022-07-06T11:59:28;22.50;99.90
61412;DHT22;47278;49.732;7.690;2022-07-06T12:02:07;23.30;99.90
61412;DHT22;47278;49.732;7.690;2022-07-06T12:04:34;23.30;99.90
61412;DHT22;47278;49.732;7.690;2022-07-06T12:07:07;23.10;99.90
61412;DHT22;47278;49.732;7.690;2022-07-06T12:09:34;23.50;99.90
61412;DHT22;47278;49.732;7.690;2022-07-06T12:12:00;23.80;99.90
61412;DHT22;47278;49.732;7.690;2022-07-06T12:14:29;22.50;99.90
61412;DHT22;47278;49.732;7.690;2022-07-06T12:16:55;23.20;99.90
61412;DHT22;47278;49.732;7.690;2022-07-06T12:19:21;23.30;99.90
61412;DHT22;47278;49.732;7.690;2022-07-06T12:21:48;23.30;99.90
61412;DHT22;47278;49.732;7.690;2022-07-06T12:24:21;23.50;99.90
61412;DHT22;47278;49.732;7.690;2022-07-06T12:26:46;23.40;99.90
61412;DHT22;47278;49.732;7.690;2022-07-06T12:29:12;23.30;99.90
61412;DHT22;47278;49.732;7.690;2022-07-06T12:31:39;23.30;99.90
61412;DHT22;47278;49.732;7.690;2022-07-06T12:34:05;23.50;99.90
61412;DHT22;47278;49.732;7.690;2022-07-06T12:36:53;23.80;99.90
61412;DHT22;47278;49.732;7.690;2022-07-06T12:39:20;23.10;99.90
61412;DHT22;47278;49.732;7.690;2022-07-06T12:41:47;23.90;99.90
61412;DHT22;47278;49.732;7.690;2022-07-06T12:44:13;23.60;99.90
61412;DHT22;47278;49.732;7.690;2022-07-06T12:46:41;23.90;99.90
61412;DHT22;47278;49.732;7.690;2022-07-06T12:49:11;24.20;99.90
61412;DHT22;47278;49.732;7.690;2022-07-06T12:51:50;24.00;99.90
61412;DHT22;47278;49.732;7.690;2022-07-06T12:54:16;23.50;99.90
61412;DHT22;47278;49.732;7.690;2022-07-06T12:56:58;24.00;99.90
61412;DHT22;47278;49.732;7.690;2022-07-06T12:59:24;23.60;99.90
61412;DHT22;47278;49.732;7.690;2022-07-06T13:01:49;23.50;99.90
61412;DHT22;47278;49.732;7.690;2022-07-06T13:04:21;23.70;99.90
61412;DHT22;47278;49.732;7.690;2022-07-06T13:06:47;24.00;99.90
61412;DHT22;47278;49.732;7.690;2022-07-06T13:09:12;23.20;99.90
61412;DHT22;47278;49.732;7.690;2022-07-06T13:11:40;23.30;99.90
61412;DHT22;47278;49.732;7.690;2022-07-06T13:14:05;23.10;99.90
61412;DHT22;47278;49.732;7.690;2022-07-06T13:16:31;23.00;99.90
61412;DHT22;47278;49.732;7.690;2022-07-06T13:19:00;23.60;99.90
61412;DHT22;47278;49.732;7.690;2022-07-06T13:21:25;23.10;99.90
61412;DHT22;47278;49.732;7.690;2022-07-06T13:23:51;23.20;99.90
61412;DHT22;47278;49.732;7.690;2022-07-06T13:26:18;23.00;99.90
61412;DHT22;47278;49.732;7.690;2022-07-06T13:28:43;20.60;99.90
61412;DHT22;47278;49.732;7.690;2022-07-06T13:31:09;22.80;99.90
61412;DHT22;47278;49.732;7.690;2022-07-06T13:33:35;22.80;99.90
61412;DHT22;47278;49.732;7.690;2022-07-06T13:36:00;23.20;99.90
61412;DHT22;47278;49.732;7.690;2022-07-06T13:38:26;23.00;99.90
61412;DHT22;47278;49.732;7.690;2022-07-06T13:40:52;23.20;99.90
61412;DHT22;47278;49.732;7.690;2022-07-06T13:43:18;23.20;99.90
61412;DHT22;47278;49.732;7.690;2022-07-06T13:45:43;22.50;99.90
61412;DHT22;47278;49.732;7.690;2022-07-06T13:48:09;22.50;99.90
61412;DHT22;47278;49.732;7.690;2022-07-06T13:50:34;22.30;99.90
61412;DHT22;47278;49.732;7.690;2022-07-06T13:53:00;22.10;99.90
61412;DHT22;47278;49.732;7.690;2022-07-06T13:55:25;22.30;99.90
61412;DHT22;47278;49.732;7.690;2022-07-06T13:57:51;22.50;99.90
61412;DHT22;47278;49.732;7.690;2022-07-06T14:00:17;22.30;99.90
61412;DHT22;47278;49.732;7.690;2022-07-06T14:02:46;22.40;99.90
61412;DHT22;47278;49.732;7.690;2022-07-06T14:05:12;21.80;99.90
61412;DHT22;47278;49.732;7.690;2022-07-06T14:07:38;21.70;99.90
61412;DHT22;47278;49.732;7.690;2022-07-06T14:10:03;21.80;99.90
61412;DHT22;47278;49.732;7.690;2022-07-06T14:12:29;21.60;99.90
61412;DHT22;47278;49.732;7.690;2022-07-06T14:14:55;21.50;99.90
61412;DHT22;47278;49.732;7.690;2022-07-06T14:17:20;21.50;99.90
61412;DHT22;47278;49.732;7.690;2022-07-06T14:19:47;21.50;99.90
61412;DHT22;47278;49.732;7.690;2022-07-06T14:22:13;21.30;99.90
61412;DHT22;47278;49.732;7.690;2022-07-06T14:24:38;20.90;99.90
61412;DHT22;47278;49.732;7.690;2022-07-06T14:27:04;20.90;99.90
61412;DHT22;47278;49.732;7.690;2022-07-06T14:29:29;20.80;99.90
61412;DHT22;47278;49.732;7.690;2022-07-06T14:31:55;20.90;99.90
61412;DHT22;47278;49.732;7.690;2022-07-06T14:34:20;20.80;99.90
61412;DHT22;47278;49.732;7.690;2022-07-06T14:36:46;20.10;99.90
61412;DHT22;47278;49.732;7.690;2022-07-06T14:39:11;20.80;99.90
61412;DHT22;47278;49.732;7.690;2022-07-06T14:41:38;20.70;99.90
61412;DHT22;47278;49.732;7.690;2022-07-06T14:44:03;20.80;99.90
61412;DHT22;47278;49.732;7.690;2022-07-06T14:46:30;20.90;99.90
61412;DHT22;47278;49.732;7.690;2022-07-06T14:48:55;20.90;99.90
61412;DHT22;47278;49.732;7.690;2022-07-06T14:51:21;20.90;99.90
61412;DHT22;47278;49.732;7.690;2022-07-06T14:53:46;20.80;99.90
61412;DHT22;47278;49.732;7.690;2022-07-06T14:56:12;20.70;99.90
61412;DHT22;47278;49.732;7.690;2022-07-06T14:58:37;20.50;99.90
61412;DHT22;47278;49.732;7.690;2022-07-06T15:01:03;20.80;99.90
61412;DHT22;47278;49.732;7.690;2022-07-06T15:03:29;20.80;99.90
61412;DHT22;47278;49.732;7.690;2022-07-06T15:05:54;20.80;99.90
61412;DHT22;47278;49.732;7.690;2022-07-06T15:08:20;20.90;99.90
61412;DHT22;47278;49.732;7.690;2022-07-06T15:10:45;21.00;99.90
61412;DHT22;47278;49.732;7.690;2022-07-06T15:13:11;20.90;99.90
61412;DHT22;47278;49.732;7.690;2022-07-06T15:15:37;21.10;99.90
61412;DHT22;47278;49.732;7.690;2022-07-06T15:18:02;21.20;99.90
61412;DHT22;47278;49.732;7.690;2022-07-06T15:20:28;21.10;99.90
61412;DHT22;47278;49.732;7.690;2022-07-06T15:22:54;20.90;99.90
61412;DHT22;47278;49.732;7.690;2022-07-06T15:25:19;20.90;99.90